July Twilight Series - 7/20/2017 
Place Name Gender/Age Age Category Category Place Pace Time
1 Flynn, Ricky M30 M30-34 1 of 11 04:49 14:56.13
2 Burkhardt, Glen M24 M20-24 1 of 8 05:01 15:34.15
3 sessions, ben M22 M20-24 2 of 8 05:13 16:10.94
4 Fiedler, Benjamin M22 M20-24 3 of 8 05:17 16:22.58
5 Graves, Chad M27 M25-29 1 of 12 05:21 16:34.24
6 Ellis, Mike M23 M20-24 4 of 8 05:22 16:38.15
7 Baker, Andrew M27 M25-29 2 of 12 05:23 16:41.60
8 Harris, Harper M17 M15-19 1 of 6 05:26 16:50.77
9 Fischbach, Yannick M26 M25-29 3 of 12 05:30 17:02.65
10 McFoy, Kyle M23 M20-24 5 of 8 05:36 17:20.20
11 CANNON, NOAH M16 M15-19 2 of 6 05:44 17:46.55
12 Esteban, Alex M18 M15-19 3 of 6 05:48 17:59.40
13 James, Matt M30 M30-34 2 of 11 05:50 18:05.73
14 Traffie, Adam M31 M30-34 3 of 11 05:52 18:10.99
15 Guth, Eric M35 M35-39 1 of 12 05:56 18:23.50
16 Downing, David M42 M40-44 1 of 11 06:00 18:36.73
17 Sherrard, Emily F29 F25-29 1 of 11 06:06 18:55.81
18 Moskalick, Lindsay F33 F30-34 1 of 12 06:13 19:17.45
19 Ferland, Christopher M47 M45-49 1 of 8 06:19 19:34.19
20 Watkins, William M33 M30-34 4 of 11 06:26 19:55.23
21 Chan, Susana F26 F25-29 2 of 11 06:27 19:59.30
22 Cooley, Amanda F39 F35-39 1 of 8 06:28 20:01.85
23 Beach, Hannah F18 F15-19 1 of 6 06:32 20:14.95
24 Cummings, Alex M15 M15-19 4 of 6 06:39 20:36.04
25 Beres, Isaac M13 M11-14 1 of 6 06:40 20:38.97
26 Faherty, Erick M22 M20-24 6 of 8 06:55 21:26.68
27 Larkin, Marah F15 F15-19 2 of 6 06:56 21:30.46
28 Chapman, Josh M19 M15-19 5 of 6 06:57 21:32.76
29 Ellis, Ethan M15 M15-19 6 of 6 07:03 21:52.21
30 Spark, david M68 M50-99 1 of 24 07:05 21:58.04
31 Eaves, Kellie F44 F40-44 1 of 12 07:08 22:08.04
32 Cody, Jeff M42 M40-44 2 of 11 07:10 22:12.03
33 Pegues, Kathryn F37 F35-39 2 of 8 07:12 22:20.63
34 Falvey, Patrick M26 M25-29 4 of 12 07:13 22:23.44
35 Littrell, Matthew M14 M11-14 2 of 6 07:14 22:26.13
36 Simpson, Chris M29 M25-29 5 of 12 07:18 22:37.93
37 Smith, Bradley M42 M40-44 3 of 11 07:18 22:39.10
38 Cooper, Brian M38 M35-39 2 of 12 07:22 22:50.30
39 Woods, Tristan M21 M20-24 7 of 8 07:24 22:56.59
40 Hattendorf, Mark M37 M35-39 3 of 12 07:29 23:10.58
41 Canteruccio, Alfred M56 M55-59 1 of 4 07:30 23:16.28
42 Faherty, Christopher M13 M11-14 3 of 6 07:31 23:19.23
43 Bridges, Page F31 F30-34 2 of 12 07:35 23:29.55
44 Neufeld, Lea F16 F15-19 3 of 6 07:38 23:38.33
45 stanton, jann F55 F55-59 1 of 4 07:38 23:39.68
46 Spracher, Erika F33 F30-34 3 of 12 07:40 23:45.93
47 Brown, Brandon M39 M35-39 4 of 12 07:40 23:46.43
48 Hoffman, Jacob M32 M30-34 5 of 11 07:43 23:54.43
49 Johnson, Justin M37 M35-39 5 of 12 07:48 24:11.24
50 Hirt, Shawn M38 M35-39 6 of 12 07:50 24:16.28
51 Traffie, Katie F30 F30-34 4 of 12 07:50 24:17.64
52 Sondesky, Codie M27 M25-29 6 of 12 07:53 24:25.30
53 Hall, Russell M60 M60-64 1 of 7 07:55 24:32.53
54 Bailey, Craig M53 M50-99 4 of 24 07:56 24:34.23
55 Semones, Chris M47 M45-49 2 of 8 07:58 24:42.04
56 James, Dick M63 M60-64 2 of 7 08:00 24:46.73
57 Beres, Matt M41 M40-44 4 of 11 08:00 24:47.83
58 Larkin, Silica F44 F40-44 2 of 12 08:00 24:49.23
59 Schaeffer, Donesha F14 F11-14 1 of 5 08:08 25:12.05
60 Alverson, Lexie F16 F15-19 4 of 6 08:09 25:16.48
61 Combes, Tom M50 M50-99 6 of 24 08:13 25:29.65
62 Rollyson, Brett M52 M50-99 7 of 24 08:17 25:41.54
63 Bridges, Emily F27 F25-29 3 of 11 08:18 25:43.83
64 NATTES, JOU M41 M40-44 5 of 11 08:24 26:01.77
65 Hughes, Tracyann F36 F35-39 3 of 8 08:28 26:13.95
66 Hall, Johnny M51 M50-99 8 of 24 08:31 26:22.73
67 Hill, Marna F47 F45-49 1 of 4 08:33 26:30.66
68 ashe, Joshua M36 M35-39 7 of 12 08:34 26:34.89
69 Rainwater, Mark M51 M50-99 9 of 24 08:35 26:37.18
70 Lowe, Carol F56 F55-59 2 of 4 08:36 26:39.81
71 Guerra, Oswaldo M51 M50-99 10 of 24 08:37 26:42.75
72 Pippin, Elyse F31 F30-34 5 of 12 08:42 26:56.68
73 Corley, Troy M34 M30-34 6 of 11 08:44 27:05.33
74 Smith, Shirley F58 F55-59 3 of 4 08:46 27:09.98
75 Edelman, Lauren F28 F25-29 4 of 11 08:46 27:10.93
76 Jespersen, Kent M61 M60-64 3 of 7 08:49 27:19.90
77 Strouse, Katie F34 F30-34 6 of 12 08:51 27:25.75
78 Mullikin, Kelly F32 F30-34 7 of 12 08:55 27:37.40
79 Karaganov, Amanda F41 F40-44 3 of 12 08:56 27:42.24
80 Brown, Melinda F39 F35-39 4 of 8 08:57 27:45.87
81 Frazier, Eric M30 M30-34 7 of 11 09:00 27:52.83
82 Edelman, Kyle M28 M25-29 7 of 12 09:01 27:58.41
83 Wilbanks, Matthew M28 M25-29 8 of 12 09:03 28:04.05
84 Brooks, Daniel M43 M40-44 6 of 11 09:04 28:06.15
85 Miller, Zachary M29 M25-29 9 of 12 09:04 28:07.18
86 Temple, Benjamin M39 M35-39 8 of 12 09:04 28:07.78
87 Beres, Megan F11 F11-14 2 of 5 09:11 28:28.69
88 Nixon, Jason M45 M45-49 3 of 8 09:12 28:30.64
89 Smith, Kristie F43 F40-44 4 of 12 09:13 28:34.23
90 Greene, Jason M44 M40-44 7 of 11 09:13 28:35.23
91 Horne, James M69 M50-99 12 of 24 09:15 28:39.25
92 DeWitt, Kyle M40 M40-44 8 of 11 09:18 28:49.11
93 Massey, Michael M26 M25-29 10 of 12 09:18 28:50.61
94 Hoeffel, Robin F53 F50-54 1 of 4 09:26 29:13.70
95 Guthrie, Alex M32 M30-34 8 of 11 09:29 29:23.30
96 Bogart, Whitney F29 F25-29 5 of 11 09:31 29:29.86
97 Gooding, Carly F25 F25-29 6 of 11 09:31 29:30.48
98 McWilliams, Tracy F33 F30-34 8 of 12 09:36 29:46.75
99 Pegues, Siena F8 F1-10 1 of 2 09:38 29:53.19
100 Hice, Mark M44 M40-44 9 of 11 09:39 29:54.60
101 Groff, Gillian F25 F25-29 7 of 11 09:42 30:03.57
102 Gamble, Zachary M31 M30-34 9 of 11 09:48 30:22.01
103 Pellett, Allen M50 M50-99 13 of 24 09:49 30:24.55
104 Rogers, Maggie F12 F11-14 3 of 5 09:52 30:34.27
105 Rogers, Christina F42 F40-44 5 of 12 09:53 30:38.69
106 Hursey, Grant M49 M45-49 4 of 8 09:53 30:39.16
107 Hughes, Clint M37 M35-39 9 of 12 09:57 30:50.96
108 Carson, Reece M23 M20-24 8 of 8 09:59 30:58.20
109 Cox, Jennifer F41 F40-44 6 of 12 10:02 31:05.94
110 Kendrick, Rob M59 M55-59 2 of 4 10:02 31:06.62
111 Kendrick, Josh M40 M40-44 10 of 11 10:04 31:12.33
112 Richardson, Bruce M55 M55-59 3 of 4 10:05 31:14.17
113 Collins, Rob M50 M50-99 16 of 24 10:07 31:20.33
114 Spracher, David J. M7 M1-10 1 of 2 10:12 31:38.31
115 Perkins, Tonya F48 F45-49 2 of 4 10:21 32:06.43
116 Mann, Holly F49 F45-49 3 of 4 10:23 32:09.76
117 Michaud, Viviane F29 F25-29 8 of 11 10:24 32:15.81
118 mccormack, cj M60 M60-64 4 of 7 10:27 32:23.06
119 Bryan, Sara F33 F30-34 9 of 12 10:27 32:24.14
120 Spracher, David R. M38 M35-39 10 of 12 10:29 32:28.65
121 Carden, Victor M53 M50-99 18 of 24 10:30 32:31.53
122 Michal, Joe M55 M55-59 4 of 4 10:30 32:33.57
123 DeWitt, Chris M64 M60-64 5 of 7 10:32 32:37.69
124 Stone, Kristy F52 F50-54 2 of 4 10:35 32:48.10
125 Bryson, Denise F46 F45-49 4 of 4 10:35 32:49.50
126 Chipman, Ryan M37 M35-39 11 of 12 10:36 32:50.10
127 Shook, Medaya F40 F40-44 7 of 12 10:38 32:57.50
128 Coleman, Charlotte F35 F35-39 5 of 8 10:51 33:39.33
129 Baker, Nicole F39 F35-39 6 of 8 10:52 33:39.85
130 Metcalf, Brent M45 M45-49 5 of 8 10:52 33:40.28
131 Larkin, Aleta F13 F11-14 4 of 5 10:56 33:52.97
132 Corbin, Mark M35 M35-39 12 of 12 11:23 35:16.16
133 Corbin, Jennifer F35 F35-39 7 of 8 11:27 35:29.20
134 Hirt, Joshua M13 M11-14 4 of 6 11:27 35:30.86
135 Sprout, Braden M8 M1-10 2 of 2 11:34 35:52.17
136 McKittrick, Ronnie M41 M40-44 11 of 11 11:40 36:10.80
137 Sprout, Christina F42 F40-44 8 of 12 11:41 36:13.93
138 Coker, Emily F13 F11-14 5 of 5 11:42 36:15.11
139 Hurley, Doug M54 M50-99 21 of 24 11:42 36:15.85
140 Roddey, Mike M49 M45-49 6 of 8 11:43 36:18.70
141 Pott, Chris M45 M45-49 7 of 8 11:44 36:21.47
142 Littrell, Jennifer F44 F40-44 9 of 12 11:44 36:23.20
143 Clark, Christine F28 F25-29 9 of 11 11:48 36:35.23
144 Wilson, Davis M13 M11-14 5 of 6 11:59 37:09.05
145 Wilson, Lisa F42 F40-44 10 of 12 12:02 37:16.93
146 Coleman, Bob M77 M70-99 1 of 1 12:05 37:27.27
147 MENDIETA, ARIANA F16 F15-19 5 of 6 12:23 38:22.21
148 Schutzman, Daniel M28 M25-29 11 of 12 12:32 38:52.26
149 Smith, Alyson F33 F30-34 10 of 12 12:35 39:00.28
150 James, Jennifer F42 F40-44 11 of 12 12:42 39:23.11
151 Dougherty, Cindy F60 F60-64 1 of 3 12:45 39:30.84
152 Emory, Zachary M13 M11-14 6 of 6 12:47 39:37.63
153 Hunter, Bryan M61 M60-64 6 of 7 12:49 39:42.55
154 Sprout, Mikayla F10 F1-10 2 of 2 12:52 39:52.25
155 Moore, Rachel F32 F30-34 11 of 12 12:55 40:01.68
156 Gray, Margaret F29 F25-29 10 of 11 13:02 40:25.68
157 Evans, Haley F19 F15-19 6 of 6 13:25 41:34.59
158 Pursley, Allison F26 F25-29 11 of 11 13:35 42:07.18
159 Lucas, Lindsey F38 F35-39 8 of 8 13:36 42:08.65
160 Looper, Scott M46 M45-49 8 of 8 13:41 42:26.39
161 McIntosh, Eddie M26 M25-29 12 of 12 13:45 42:37.48
162 Gray, Chad M30 M30-34 10 of 11 13:58 43:16.37
163 Corley, Shellie F42 F40-44 12 of 12 15:00 46:30.38
164 Hurley, Corinne F50 F50-54 3 of 4 15:00 46:30.72
165 Anantatmula, Shruti F24 F20-24 1 of 1 15:03 46:39.37
166 Hertling, Donna F66 F65-69 1 of 1 15:03 46:39.96
167 Epps, Eva F74 F70-99 1 of 1 15:03 46:40.55
168 Wood, Jackie F51 F50-54 4 of 4 15:04 46:41.23
169 Saville, Sharon F56 F55-59 4 of 4 15:19 47:29.00
170 Saville, Nick M64 M60-64 7 of 7 15:29 48:00.01
171 Reese, Anna F32 F30-34 12 of 12 15:31 48:07.09
172 Sizemore, Andrew M32 M30-34 11 of 11 15:52 49:10.58
173 Hirt, Rachel F61 F60-64 2 of 3 15:54 49:16.96
174 James, Jennifer F60 F60-64 3 of 3 15:55 49:20.14